Time;durP1;ratioP1;P1;durP2;ratioP2;P2;SDS_P1;SDS_P2;PMS_P1;PMS_P2;Temp;Humidity;BMP_temperature;BMP_pressure;BME280_temperature;BME280_humidity;BME280_pressure;Samples;Min_cycle;Max_cycle;Signal;HPM_P1;HPM_P2
2023/01/12 00:00:36;;;;;;;11.10;3.50;;;;;;;;;;6244338;22;20079;-90
2023/01/12 00:03:09;;;;;;;27.55;5.90;;;;;;;;;;6252981;22;20046;-90
2023/01/12 00:05:37;;;;;;;20.38;4.30;;;;;;;;;;6219244;22;20023;-91
2023/01/12 00:08:05;;;;;;;8.15;2.75;;;;;;;;;;6255340;22;20126;-90
2023/01/12 00:10:33;;;;;;;8.52;2.47;;;;;;;;;;6280985;22;20026;-90
2023/01/12 00:13:01;;;;;;;7.95;2.00;;;;;;;;;;6281359;22;20023;-90
2023/01/12 00:16:33;;;;;;;10.25;2.80;;;;;;;;;;6219384;22;20107;-89
2023/01/12 00:18:21;;;;;;;10.07;3.10;;;;;;;;;;6279659;22;20025;-89
2023/01/12 00:20:49;;;;;;;16.33;4.07;;;;;;;;;;6254721;22;20016;-89
2023/01/12 00:23:18;;;;;;;15.93;3.78;;;;;;;;;;6280856;22;20439;-89
2023/01/12 00:25:51;;;;;;;15.98;3.80;;;;;;;;;;6281874;22;20020;-89
2023/01/12 00:28:23;;;;;;;7.70;3.10;;;;;;;;;;6255412;22;20023;-89
2023/01/12 00:30:51;;;;;;;13.07;3.30;;;;;;;;;;6253406;22;20012;-90
2023/01/12 00:33:43;;;;;;;13.00;3.53;;;;;;;;;;6217691;22;20015;-89
2023/01/12 00:36:12;;;;;;;10.90;2.60;;;;;;;;;;6280619;22;20091;-90
2023/01/12 00:38:41;;;;;;;9.68;3.03;;;;;;;;;;6253217;22;20027;-90
2023/01/12 00:47:20;;;;;;;6.32;2.45;;;;;;;;;;6278460;22;20070;-89
2023/01/12 00:49:49;;;;;;;9.75;2.35;;;;;;;;;;6281224;22;20012;-89
2023/01/12 00:52:18;;;;;;;10.77;2.63;;;;;;;;;;6287750;22;20547;-91
2023/01/12 00:54:58;;;;;;;12.82;2.65;;;;;;;;;;6292468;22;20065;-90
2023/01/12 00:57:25;;;;;;;9.63;2.45;;;;;;;;;;6261028;22;20020;-90
2023/01/12 00:59:53;;;;;;;20.40;4.75;;;;;;;;;;6256043;22;20340;-89
2023/01/12 01:02:47;;;;;;;13.82;3.25;;;;;;;;;;6234959;22;20115;-90
2023/01/12 01:05:16;;;;;;;9.75;2.85;;;;;;;;;;6256450;22;20046;-89
2023/01/12 01:07:46;;;;;;;11.38;2.75;;;;;;;;;;6231902;22;20074;-89
2023/01/12 01:10:14;;;;;;;6.90;3.47;;;;;;;;;;6293929;22;20016;-89
2023/01/12 01:12:43;;;;;;;8.65;3.17;;;;;;;;;;6268488;22;20019;-90
2023/01/12 01:15:11;;;;;;;16.15;4.15;;;;;;;;;;6233800;22;20019;-90
2023/01/12 01:17:43;;;;;;;11.55;3.53;;;;;;;;;;6295243;22;20039;-89
2023/01/12 01:20:11;;;;;;;17.02;4.15;;;;;;;;;;6232735;22;20091;-90
2023/01/12 01:22:39;;;;;;;9.88;2.92;;;;;;;;;;6257530;22;20020;-89
2023/01/12 01:25:07;;;;;;;12.38;3.08;;;;;;;;;;6267430;22;20515;-90
2023/01/12 01:27:35;;;;;;;10.52;3.00;;;;;;;;;;6231307;22;20030;-89
2023/01/12 01:30:07;;;;;;;9.35;2.45;;;;;;;;;;6231534;22;20015;-89
2023/01/12 01:32:35;;;;;;;23.83;5.32;;;;;;;;;;6266616;22;20499;-90
2023/01/12 01:35:03;;;;;;;11.15;2.95;;;;;;;;;;6267560;22;20073;-89
2023/01/12 01:37:31;;;;;;;8.65;2.00;;;;;;;;;;6231300;22;20030;-90
2023/01/12 01:39:59;;;;;;;12.73;3.00;;;;;;;;;;6267461;22;20035;-89
2023/01/12 01:42:31;;;;;;;7.13;2.20;;;;;;;;;;6294265;22;20023;-90
2023/01/12 01:45:01;;;;;;;8.00;1.75;;;;;;;;;;6267817;22;20075;-89
2023/01/12 01:47:38;;;;;;;6.32;1.98;;;;;;;;;;6243035;22;20050;-90
2023/01/12 01:50:13;;;;;;;8.38;1.73;;;;;;;;;;6257008;22;20016;-90
2023/01/12 01:53:13;;;;;;;8.85;1.80;;;;;;;;;;6256618;22;20383;-89
2023/01/12 01:56:04;;;;;;;6.22;1.58;;;;;;;;;;6293466;22;20510;-90
2023/01/12 01:58:38;;;;;;;12.57;1.73;;;;;;;;;;6292785;22;20015;-90
2023/01/12 02:01:06;;;;;;;7.63;1.75;;;;;;;;;;6293985;22;20012;-90
2023/01/12 02:03:40;;;;;;;12.23;1.98;;;;;;;;;;6268653;22;20102;-89
2023/01/12 02:06:07;;;;;;;9.20;1.55;;;;;;;;;;6266970;22;20055;-89
2023/01/12 02:09:11;;;;;;;9.07;1.83;;;;;;;;;;6256157;22;20020;-90
2023/01/12 02:18:09;;;;;;;9.30;2.22;;;;;;;;;;6255285;22;20019;-90
2023/01/12 02:20:55;;;;;;;9.70;1.88;;;;;;;;;;6292444;22;20090;-90
2023/01/12 02:23:56;;;;;;;4.97;1.70;;;;;;;;;;6265632;22;20016;-89
2023/01/12 02:26:41;;;;;;;4.68;1.55;;;;;;;;;;6203738;22;20391;-89
2023/01/12 02:29:45;;;;;;;10.00;3.05;;;;;;;;;;6265097;22;20024;-90
2023/01/12 02:32:50;;;;;;;6.50;1.55;;;;;;;;;;6271221;22;20031;-89
2023/01/12 02:35:36;;;;;;;11.15;2.22;;;;;;;;;;6265323;22;20067;-90
2023/01/12 02:38:44;;;;;;;12.30;2.20;;;;;;;;;;6265061;22;20014;-89
2023/01/12 02:44:51;;;;;;;9.07;1.60;;;;;;;;;;6291587;22;20012;-89
2023/01/12 02:47:30;;;;;;;11.10;2.67;;;;;;;;;;6254586;22;20098;-89
2023/01/12 02:50:02;;;;;;;14.85;1.73;;;;;;;;;;6264772;22;20416;-90
2023/01/12 02:52:33;;;;;;;10.60;2.03;;;;;;;;;;6229653;22;20019;-90
2023/01/12 02:58:23;;;;;;;6.03;2.05;;;;;;;;;;6291882;22;20016;-89
2023/01/12 03:00:59;;;;;;;7.72;1.80;;;;;;;;;;6292056;22;20012;-89
2023/01/12 03:03:55;;;;;;;6.85;2.10;;;;;;;;;;6292861;22;20513;-90
2023/01/12 03:06:23;;;;;;;7.95;1.90;;;;;;;;;;6292024;22;20019;-89
2023/01/12 03:08:51;;;;;;;5.95;1.45;;;;;;;;;;6265414;22;20039;-89
2023/01/12 03:11:21;;;;;;;4.70;1.77;;;;;;;;;;6264777;22;20462;-90
2023/01/12 03:13:53;;;;;;;7.45;1.50;;;;;;;;;;6291833;22;20066;-89
2023/01/12 03:16:25;;;;;;;7.55;1.48;;;;;;;;;;6292657;22;20020;-90
2023/01/12 03:19:28;;;;;;;7.28;1.58;;;;;;;;;;6291634;22;20015;-90
2023/01/12 03:21:59;;;;;;;5.35;1.73;;;;;;;;;;6263562;22;20038;-89
2023/01/12 03:24:34;;;;;;;8.00;1.40;;;;;;;;;;6229412;22;20016;-89
2023/01/12 03:27:31;;;;;;;10.60;2.05;;;;;;;;;;6286051;22;20304;-89
2023/01/12 03:33:28;;;;;;;5.68;1.67;;;;;;;;;;6291813;22;20020;-89
2023/01/12 03:36:14;;;;;;;8.07;1.70;;;;;;;;;;6241669;22;20011;-89
2023/01/12 03:39:16;;;;;;;6.05;1.42;;;;;;;;;;6254820;22;20459;-89
2023/01/12 03:42:19;;;;;;;5.10;1.35;;;;;;;;;;6264621;22;20075;-89
2023/01/12 03:45:20;;;;;;;5.82;1.88;;;;;;;;;;6269545;22;20015;-89
2023/01/12 03:48:05;;;;;;;4.28;1.85;;;;;;;;;;6264102;22;20065;-90
2023/01/12 03:50:58;;;;;;;8.50;1.58;;;;;;;;;;6264801;22;20016;-90
2023/01/12 03:53:28;;;;;;;4.88;1.55;;;;;;;;;;6264799;22;20015;-89
2023/01/12 03:56:02;;;;;;;6.43;1.27;;;;;;;;;;6229809;22;20026;-89
2023/01/12 03:58:33;;;;;;;5.30;1.20;;;;;;;;;;6264278;22;20405;-89
2023/01/12 04:01:02;;;;;;;3.90;1.40;;;;;;;;;;6264897;22;20440;-89
2023/01/12 04:03:31;;;;;;;4.78;1.38;;;;;;;;;;6291436;22;20026;-89
2023/01/12 04:06:03;;;;;;;5.90;1.75;;;;;;;;;;6290678;22;20019;-89
2023/01/12 04:08:35;;;;;;;4.28;2.25;;;;;;;;;;6290169;22;20020;-90
2023/01/12 04:12:08;;;;;;;9.77;2.58;;;;;;;;;;6289619;22;20018;-90
2023/01/12 04:14:16;;;;;;;7.40;1.77;;;;;;;;;;6263521;22;20022;-89
2023/01/12 04:16:43;;;;;;;6.78;1.63;;;;;;;;;;6253993;22;20023;-89
2023/01/12 04:19:11;;;;;;;5.85;1.70;;;;;;;;;;6291978;22;20016;-89
2023/01/12 04:24:25;;;;;;;9.85;1.85;;;;;;;;;;6255375;22;20035;-90
2023/01/12 04:26:53;;;;;;;8.65;1.80;;;;;;;;;;6292575;22;20019;-89
2023/01/12 04:29:47;;;;;;;7.05;1.40;;;;;;;;;;6292954;22;20019;-90
2023/01/12 04:32:15;;;;;;;6.72;2.00;;;;;;;;;;6265424;22;20016;-89
2023/01/12 04:34:43;;;;;;;5.00;1.40;;;;;;;;;;6255796;22;20337;-89
2023/01/12 04:37:42;;;;;;;6.13;1.40;;;;;;;;;;6292864;22;20011;-89
2023/01/12 04:40:10;;;;;;;8.38;2.03;;;;;;;;;;6266883;22;20023;-90
2023/01/12 04:43:05;;;;;;;4.10;1.60;;;;;;;;;;6266177;22;20046;-90
2023/01/12 04:45:40;;;;;;;6.65;2.00;;;;;;;;;;6267506;22;20043;-89
2023/01/12 04:48:11;;;;;;;6.35;1.80;;;;;;;;;;6241548;22;20466;-90
2023/01/12 04:50:39;;;;;;;11.43;1.92;;;;;;;;;;6265728;22;20067;-89
2023/01/12 04:53:10;;;;;;;7.82;1.73;;;;;;;;;;6240464;22;20460;-90
2023/01/12 04:56:05;;;;;;;5.35;1.75;;;;;;;;;;6270671;22;20037;-89
2023/01/12 04:58:41;;;;;;;9.18;2.35;;;;;;;;;;6265614;22;20038;-89
2023/01/12 05:01:09;;;;;;;7.25;1.67;;;;;;;;;;6266287;22;20392;-90
2023/01/12 05:04:08;;;;;;;6.50;1.65;;;;;;;;;;6235760;22;20026;-89
2023/01/12 05:06:41;;;;;;;6.53;1.60;;;;;;;;;;6242277;22;20387;-89
2023/01/12 05:12:01;;;;;;;10.10;2.00;;;;;;;;;;6266112;22;20470;-90
2023/01/12 05:14:29;;;;;;;5.90;1.42;;;;;;;;;;6266473;22;20111;-89
2023/01/12 05:16:58;;;;;;;5.10;1.60;;;;;;;;;;6267486;22;20020;-90
2023/01/12 05:19:27;;;;;;;6.50;1.88;;;;;;;;;;6294508;22;20024;-90
2023/01/12 05:22:04;;;;;;;3.83;1.48;;;;;;;;;;6266811;22;20022;-89
2023/01/12 05:24:33;;;;;;;4.80;1.60;;;;;;;;;;6257072;22;20015;-90
2023/01/12 05:27:25;;;;;;;6.65;1.60;;;;;;;;;;6234930;22;20011;-89
2023/01/12 05:29:55;;;;;;;5.93;1.58;;;;;;;;;;6212392;22;20035;-90
2023/01/12 05:32:23;;;;;;;5.95;1.60;;;;;;;;;;6246532;22;20018;-90
2023/01/12 05:34:51;;;;;;;9.27;1.60;;;;;;;;;;6213356;22;20019;-89
2023/01/12 05:37:19;;;;;;;6.05;1.58;;;;;;;;;;6247970;22;20640;-90
2023/01/12 05:39:47;;;;;;;10.50;2.03;;;;;;;;;;6238319;22;20030;-90
2023/01/12 05:45:10;;;;;;;7.47;1.75;;;;;;;;;;6298577;22;20019;-90
2023/01/12 05:47:37;;;;;;;10.70;1.92;;;;;;;;;;6271399;22;20023;-90
2023/01/12 05:50:05;;;;;;;3.53;1.77;;;;;;;;;;6236547;22;20124;-90
2023/01/12 05:53:09;;;;;;;4.80;1.70;;;;;;;;;;6298159;22;20370;-89
2023/01/12 05:56:08;;;;;;;7.90;1.95;;;;;;;;;;6273616;22;20467;-89
2023/01/12 05:58:37;;;;;;;8.05;2.08;;;;;;;;;;6290250;22;20012;-89
2023/01/12 06:01:09;;;;;;;5.63;1.70;;;;;;;;;;6272004;22;20035;-90
2023/01/12 06:03:37;;;;;;;7.38;2.20;;;;;;;;;;6267828;22;20019;-89
2023/01/12 06:06:05;;;;;;;8.13;2.03;;;;;;;;;;6292105;22;20042;-89
2023/01/12 06:08:33;;;;;;;5.53;1.95;;;;;;;;;;6293825;22;20024;-89
2023/01/12 06:11:02;;;;;;;4.35;1.90;;;;;;;;;;6266393;22;20011;-90
2023/01/12 06:16:40;;;;;;;10.32;2.10;;;;;;;;;;6222838;22;20011;-90
2023/01/12 06:19:10;;;;;;;6.05;2.30;;;;;;;;;;6246395;22;20027;-90
2023/01/12 06:22:01;;;;;;;4.60;2.00;;;;;;;;;;6284268;22;20498;-89
2023/01/12 06:24:53;;;;;;;8.73;2.10;;;;;;;;;;6286426;22;20023;-90
2023/01/12 06:27:21;;;;;;;3.60;2.13;;;;;;;;;;6232244;22;20019;-90
2023/01/12 06:29:49;;;;;;;5.75;2.45;;;;;;;;;;6223272;22;20024;-90
2023/01/12 06:32:27;;;;;;;8.50;2.40;;;;;;;;;;6259371;22;20454;-89
2023/01/12 06:34:57;;;;;;;4.60;2.00;;;;;;;;;;6270346;22;20039;-86
2023/01/12 06:37:33;;;;;;;7.95;2.40;;;;;;;;;;6226958;22;20043;-89
2023/01/12 06:40:01;;;;;;;4.95;2.08;;;;;;;;;;6286316;22;20099;-87
2023/01/12 06:45:21;;;;;;;13.38;2.30;;;;;;;;;;6261073;22;20016;-90
2023/01/12 06:47:50;;;;;;;6.78;2.25;;;;;;;;;;6250755;22;20474;-91
2023/01/12 06:50:19;;;;;;;6.65;2.35;;;;;;;;;;6290916;22;20071;-91
2023/01/12 06:52:47;;;;;;;7.47;2.42;;;;;;;;;;6235920;22;20529;-91
2023/01/12 06:55:15;;;;;;;5.22;2.30;;;;;;;;;;6273472;22;20024;-91
2023/01/12 06:57:43;;;;;;;7.53;2.85;;;;;;;;;;6236216;22;20042;-90
2023/01/12 07:00:17;;;;;;;4.90;2.47;;;;;;;;;;6233976;22;20016;-91
2023/01/12 07:02:48;;;;;;;5.40;2.67;;;;;;;;;;6270140;22;20011;-92
2023/01/12 07:05:17;;;;;;;7.97;2.88;;;;;;;;;;6250745;22;20066;-92
2023/01/12 07:07:45;;;;;;;7.57;2.90;;;;;;;;;;6240066;22;20040;-92
2023/01/12 07:10:37;;;;;;;6.93;2.83;;;;;;;;;;6207362;22;20086;-91
2023/01/12 07:13:05;;;;;;;8.90;2.97;;;;;;;;;;6264830;22;20079;-90
2023/01/12 07:15:37;;;;;;;5.03;2.72;;;;;;;;;;6229036;22;20038;-92
2023/01/12 07:18:05;;;;;;;7.72;2.67;;;;;;;;;;6202415;22;20074;-92
2023/01/12 07:20:33;;;;;;;7.35;2.90;;;;;;;;;;6248599;22;20047;-91
2023/01/12 07:23:01;;;;;;;5.47;2.70;;;;;;;;;;6258550;22;20099;-92
2023/01/12 07:25:56;;;;;;;7.07;2.95;;;;;;;;;;6285508;22;20479;-92
2023/01/12 07:28:23;;;;;;;5.05;2.72;;;;;;;;;;6247792;22;20023;-91
2023/01/12 07:31:15;;;;;;;4.88;2.67;;;;;;;;;;6264094;22;20022;-91
2023/01/12 07:33:49;;;;;;;6.13;2.65;;;;;;;;;;6248004;22;20046;-92
2023/01/12 07:36:17;;;;;;;7.50;2.60;;;;;;;;;;6233621;22;20800;-92
2023/01/12 07:38:49;;;;;;;6.53;2.63;;;;;;;;;;6224051;22;20058;-91
2023/01/12 07:44:09;;;;;;;5.72;2.50;;;;;;;;;;6259032;22;20046;-91
2023/01/12 07:46:37;;;;;;;4.60;2.58;;;;;;;;;;6285267;22;20012;-91
2023/01/12 07:49:05;;;;;;;7.07;2.20;;;;;;;;;;6259441;22;20762;-91
2023/01/12 07:51:33;;;;;;;4.85;2.55;;;;;;;;;;6259419;22;20019;-92
2023/01/12 07:54:01;;;;;;;5.13;2.55;;;;;;;;;;6258576;22;20020;-91
2023/01/12 07:56:29;;;;;;;6.40;2.80;;;;;;;;;;6284154;22;20023;-91
2023/01/12 07:59:01;;;;;;;8.20;3.10;;;;;;;;;;6257279;22;20038;-92
2023/01/12 08:01:34;;;;;;;5.75;2.70;;;;;;;;;;6259999;22;20087;-91
2023/01/12 08:04:28;;;;;;;8.02;2.60;;;;;;;;;;6225823;22;20039;-92
2023/01/12 08:06:55;;;;;;;6.88;2.90;;;;;;;;;;6225138;22;20410;-91
2023/01/12 08:09:49;;;;;;;8.98;2.40;;;;;;;;;;6249283;22;20043;-92
2023/01/12 08:12:21;;;;;;;8.00;2.60;;;;;;;;;;6248590;22;20016;-92
2023/01/12 08:14:49;;;;;;;6.60;1.80;;;;;;;;;;6234289;22;20022;-91
2023/01/12 08:17:22;;;;;;;8.43;2.03;;;;;;;;;;6284495;22;20020;-92
2023/01/12 08:20:00;;;;;;;4.90;2.35;;;;;;;;;;6259110;22;20394;-93
2023/01/12 08:22:34;;;;;;;4.70;2.35;;;;;;;;;;6258163;22;20023;-92
2023/01/12 08:25:15;;;;;;;5.32;1.75;;;;;;;;;;6221935;22;20535;-91
2023/01/12 08:27:46;;;;;;;7.32;1.95;;;;;;;;;;6251252;22;20082;-91
2023/01/12 08:30:37;;;;;;;5.65;1.80;;;;;;;;;;6227137;22;20012;-91
2023/01/12 08:33:05;;;;;;;3.58;1.73;;;;;;;;;;6291143;22;20467;-92
2023/01/12 08:35:34;;;;;;;3.63;1.50;;;;;;;;;;6212481;22;20028;-91
2023/01/12 08:38:25;;;;;;;6.10;2.25;;;;;;;;;;6266896;22;20428;-92
2023/01/12 08:44:01;;;;;;;4.50;1.25;;;;;;;;;;6271663;22;20016;-92
2023/01/12 08:46:35;;;;;;;3.35;1.50;;;;;;;;;;6263668;22;20016;-91
2023/01/12 08:49:12;;;;;;;3.42;1.23;;;;;;;;;;6229955;22;20034;-92
2023/01/12 08:51:43;;;;;;;2.70;1.15;;;;;;;;;;6230461;22;20042;-92
2023/01/12 08:54:13;;;;;;;2.28;1.08;;;;;;;;;;6267018;22;20069;-91
2023/01/12 08:56:41;;;;;;;3.75;1.33;;;;;;;;;;6266262;22;20474;-91
2023/01/12 08:59:09;;;;;;;3.72;1.40;;;;;;;;;;6267731;22;20030;-92
2023/01/12 09:01:37;;;;;;;2.88;1.02;;;;;;;;;;6227556;22;20020;-91
2023/01/12 09:04:05;;;;;;;3.25;1.05;;;;;;;;;;6261439;22;20011;-91
2023/01/12 09:06:40;;;;;;;3.40;1.25;;;;;;;;;;6252022;22;20098;-91
2023/01/12 09:09:12;;;;;;;4.05;1.20;;;;;;;;;;6225055;22;20039;-91
2023/01/12 09:11:42;;;;;;;3.55;1.20;;;;;;;;;;6264717;22;20447;-91
2023/01/12 09:14:12;;;;;;;2.22;0.90;;;;;;;;;;6289516;22;20046;-91
2023/01/12 09:16:41;;;;;;;4.40;1.05;;;;;;;;;;6262643;22;20038;-92
2023/01/12 09:19:09;;;;;;;2.38;0.93;;;;;;;;;;6228357;22;20443;-91
2023/01/12 09:22:01;;;;;;;2.60;0.63;;;;;;;;;;6232901;22;20004;-91
2023/01/12 09:24:33;;;;;;;2.72;0.90;;;;;;;;;;6289820;22;20022;-91
2023/01/12 09:27:01;;;;;;;1.70;0.70;;;;;;;;;;6289699;22;20019;-92
2023/01/12 09:29:29;;;;;;;3.55;0.90;;;;;;;;;;6264259;22;20069;-91
2023/01/12 09:31:57;;;;;;;2.33;0.82;;;;;;;;;;6241243;22;20065;-91
2023/01/12 09:34:27;;;;;;;1.95;0.75;;;;;;;;;;6260607;22;20031;-91
2023/01/12 09:37:00;;;;;;;1.05;0.60;;;;;;;;;;6233344;22;20472;-89
2023/01/12 09:39:54;;;;;;;2.55;0.80;;;;;;;;;;6285773;22;20015;-91
2023/01/12 09:48:11;;;;;;;1.92;0.80;;;;;;;;;;6246997;22;20019;-90
2023/01/12 09:50:48;;;;;;;2.35;1.00;;;;;;;;;;6221875;22;20069;-90
2023/01/12 09:53:30;;;;;;;1.20;0.70;;;;;;;;;;6246191;22;20022;-91
2023/01/12 09:56:19;;;;;;;2.90;0.82;;;;;;;;;;6230616;22;20023;-90
2023/01/12 09:59:10;;;;;;;1.88;0.85;;;;;;;;;;6256610;22;20047;-90
2023/01/12 10:01:39;;;;;;;3.53;0.75;;;;;;;;;;6258172;22;20517;-90
2023/01/12 10:04:07;;;;;;;1.92;0.90;;;;;;;;;;6257513;22;20043;-90
2023/01/12 10:06:39;;;;;;;2.35;0.82;;;;;;;;;;6283641;22;20012;-91
2023/01/12 10:09:21;;;;;;;2.97;1.02;;;;;;;;;;6232977;22;20525;-90
2023/01/12 10:12:30;;;;;;;3.58;1.00;;;;;;;;;;6220534;22;20440;-90
2023/01/12 10:15:26;;;;;;;1.98;0.82;;;;;;;;;;6189928;23;20075;-89
2023/01/12 10:18:33;;;;;;;2.03;0.77;;;;;;;;;;6145694;23;20070;-91
2023/01/12 10:21:01;;;;;;;1.60;0.88;;;;;;;;;;6190657;23;20025;-90
2023/01/12 10:23:29;;;;;;;2.78;0.90;;;;;;;;;;6130627;23;20153;-90
2023/01/12 10:26:10;;;;;;;2.00;0.90;;;;;;;;;;6189939;23;20055;-90
2023/01/12 10:28:43;;;;;;;1.02;0.65;;;;;;;;;;6188514;23;20028;-91
2023/01/12 10:31:37;;;;;;;1.27;0.70;;;;;;;;;;6188841;23;20032;-91
2023/01/12 10:37:49;;;;;;;1.85;1.00;;;;;;;;;;6189549;23;20457;-91
2023/01/12 10:40:31;;;;;;;1.13;0.70;;;;;;;;;;6164103;23;20047;-91
2023/01/12 10:43:22;;;;;;;3.42;0.90;;;;;;;;;;6164834;23;20028;-90
2023/01/12 10:45:54;;;;;;;1.15;0.60;;;;;;;;;;6140782;23;20029;-90
2023/01/12 10:48:49;;;;;;;1.20;0.80;;;;;;;;;;6191263;22;20477;-91
2023/01/12 10:51:28;;;;;;;1.60;0.88;;;;;;;;;;6231877;22;20054;-90
2023/01/12 10:54:19;;;;;;;1.90;0.80;;;;;;;;;;6246054;22;20035;-91
2023/01/12 10:57:01;;;;;;;1.60;0.77;;;;;;;;;;6246076;22;20023;-91
2023/01/12 10:59:34;;;;;;;3.35;0.80;;;;;;;;;;6245676;22;20099;-91
2023/01/12 11:02:10;;;;;;;1.52;0.80;;;;;;;;;;6282378;22;20037;-90
2023/01/12 11:04:51;;;;;;;1.38;0.65;;;;;;;;;;6222263;22;20091;-90
2023/01/12 11:07:30;;;;;;;1.15;0.68;;;;;;;;;;6287776;22;20026;-90
2023/01/12 11:10:18;;;;;;;1.33;0.65;;;;;;;;;;6288556;22;20028;-91
2023/01/12 11:13:31;;;;;;;3.55;0.85;;;;;;;;;;6234165;22;20031;-90
2023/01/12 11:16:11;;;;;;;1.88;0.70;;;;;;;;;;6264393;22;20073;-90
2023/01/12 11:18:50;;;;;;;2.00;0.90;;;;;;;;;;6219996;22;20081;-91
2023/01/12 11:21:21;;;;;;;1.60;0.90;;;;;;;;;;6255963;22;20020;-91
2023/01/12 11:24:36;;;;;;;1.83;0.73;;;;;;;;;;6256277;22;20175;-91
2023/01/12 11:27:20;;;;;;;1.70;0.90;;;;;;;;;;6165590;23;20079;-90
2023/01/12 11:30:13;;;;;;;1.98;0.77;;;;;;;;;;6188784;23;20099;-91
2023/01/12 11:32:58;;;;;;;2.10;1.08;;;;;;;;;;6188961;23;20651;-91
2023/01/12 11:35:38;;;;;;;1.92;0.90;;;;;;;;;;6130388;23;20067;-90
2023/01/12 11:38:19;;;;;;;1.17;0.80;;;;;;;;;;6189766;23;20616;-90
2023/01/12 11:41:28;;;;;;;2.28;0.63;;;;;;;;;;6190224;23;20025;-90
2023/01/12 11:44:04;;;;;;;1.55;0.88;;;;;;;;;;6190460;23;20086;-91
2023/01/12 11:46:45;;;;;;;1.63;0.80;;;;;;;;;;6189396;23;20096;-91
2023/01/12 11:49:26;;;;;;;2.42;1.02;;;;;;;;;;6179622;23;20025;-91
2023/01/12 11:51:55;;;;;;;1.67;0.68;;;;;;;;;;6190062;23;20086;-90
2023/01/12 11:54:26;;;;;;;1.20;0.70;;;;;;;;;;6165056;23;20024;-90
2023/01/12 11:57:05;;;;;;;1.23;0.60;;;;;;;;;;6203377;22;20593;-92
2023/01/12 11:59:54;;;;;;;1.33;0.70;;;;;;;;;;6257016;22;20124;-91
2023/01/12 12:02:40;;;;;;;1.85;0.88;;;;;;;;;;6246737;22;20023;-91
2023/01/12 12:05:28;;;;;;;1.38;0.75;;;;;;;;;;6257300;22;20027;-90
2023/01/12 12:07:57;;;;;;;1.15;0.65;;;;;;;;;;6283742;22;20030;-91
2023/01/12 12:11:23;;;;;;;2.15;1.05;;;;;;;;;;6231066;22;20030;-91
2023/01/12 12:14:28;;;;;;;3.72;0.90;;;;;;;;;;6255088;22;20019;-90
2023/01/12 12:17:22;;;;;;;2.33;1.23;;;;;;;;;;6130860;23;20024;-91
2023/01/12 12:20:10;;;;;;;2.90;1.10;;;;;;;;;;6158436;23;20711;-90
2023/01/12 12:23:03;;;;;;;1.95;1.10;;;;;;;;;;6167358;23;20024;-90
2023/01/12 12:25:59;;;;;;;1.83;1.08;;;;;;;;;;6147668;23;20105;-92
2023/01/12 12:28:54;;;;;;;3.72;1.10;;;;;;;;;;6137534;23;20064;-91
2023/01/12 12:31:46;;;;;;;3.00;1.05;;;;;;;;;;6159407;23;20112;-90
2023/01/12 12:34:34;;;;;;;2.97;1.10;;;;;;;;;;6171283;23;20021;-90
2023/01/12 12:37:11;;;;;;;3.70;1.10;;;;;;;;;;6168097;23;20072;-90
2023/01/12 12:39:53;;;;;;;2.15;1.00;;;;;;;;;;6181254;23;20610;-91
2023/01/12 12:46:40;;;;;;;2.67;1.20;;;;;;;;;;6128452;23;20065;-91
2023/01/12 12:49:09;;;;;;;2.20;1.10;;;;;;;;;;6106799;23;20022;-90
2023/01/12 12:51:44;;;;;;;3.58;1.30;;;;;;;;;;6073122;23;20069;-90
2023/01/12 12:54:39;;;;;;;3.78;1.40;;;;;;;;;;6156453;23;20031;-90
2023/01/12 12:57:07;;;;;;;6.35;1.30;;;;;;;;;;6198541;23;20020;-91
2023/01/12 12:59:50;;;;;;;4.90;1.45;;;;;;;;;;6186860;23;20464;-91
2023/01/12 13:02:51;;;;;;;2.67;1.33;;;;;;;;;;6195822;23;20032;-90
2023/01/12 13:05:40;;;;;;;4.55;1.63;;;;;;;;;;6221453;23;20028;-91
2023/01/12 13:08:22;;;;;;;3.63;1.35;;;;;;;;;;6171379;23;20358;-90
2023/01/12 13:10:56;;;;;;;3.03;1.33;;;;;;;;;;6201464;23;20027;-90
2023/01/12 13:13:37;;;;;;;2.35;1.20;;;;;;;;;;6148886;23;20025;-90
2023/01/12 13:16:29;;;;;;;2.45;1.30;;;;;;;;;;6239898;22;20023;-92
2023/01/12 13:19:37;;;;;;;4.15;1.80;;;;;;;;;;6269101;22;20450;-91
2023/01/12 13:22:42;;;;;;;6.55;1.58;;;;;;;;;;6257782;22;20102;-91
2023/01/12 13:25:21;;;;;;;2.42;1.08;;;;;;;;;;6257713;22;20436;-91
2023/01/12 13:27:58;;;;;;;3.08;1.40;;;;;;;;;;6255916;22;20038;-90
2023/01/12 13:30:27;;;;;;;5.72;1.40;;;;;;;;;;6253575;22;20043;-90
2023/01/12 13:33:16;;;;;;;3.00;1.23;;;;;;;;;;6251507;22;20019;-91
2023/01/12 13:35:45;;;;;;;4.60;1.10;;;;;;;;;;6271175;22;20075;-91
2023/01/12 13:38:19;;;;;;;4.63;1.02;;;;;;;;;;6245765;22;20039;-92
2023/01/12 13:41:16;;;;;;;9.40;1.60;;;;;;;;;;6247781;22;20035;-92
2023/01/12 13:43:56;;;;;;;6.57;1.50;;;;;;;;;;6283573;22;20012;-92
2023/01/12 13:52:29;;;;;;;11.10;1.27;;;;;;;;;;6247015;22;20024;-91
2023/01/12 13:54:57;;;;;;;7.13;1.77;;;;;;;;;;6221180;22;20023;-92
2023/01/12 13:57:27;;;;;;;8.85;1.40;;;;;;;;;;6221768;22;20019;-92
2023/01/12 14:00:09;;;;;;;8.82;1.27;;;;;;;;;;6222788;22;20038;-92
2023/01/12 14:02:41;;;;;;;8.75;1.25;;;;;;;;;;6246398;22;20019;-93
2023/01/12 14:05:21;;;;;;;6.13;1.42;;;;;;;;;;6248470;22;20019;-91
2023/01/12 14:08:16;;;;;;;8.23;1.50;;;;;;;;;;6223195;22;20020;-92
2023/01/12 14:10:49;;;;;;;7.00;1.85;;;;;;;;;;6259183;22;20023;-91
2023/01/12 14:17:47;;;;;;;8.27;1.42;;;;;;;;;;6246731;22;20035;-91
2023/01/12 14:19:50;;;;;;;6.68;1.33;;;;;;;;;;6270174;22;20024;-92
2023/01/12 14:22:19;;;;;;;4.68;1.27;;;;;;;;;;6221699;22;20020;-92
2023/01/12 14:24:47;;;;;;;6.70;1.38;;;;;;;;;;6254458;22;20091;-92
2023/01/12 14:27:22;;;;;;;6.18;1.98;;;;;;;;;;6225118;22;20098;-91
2023/01/12 14:29:53;;;;;;;8.55;1.98;;;;;;;;;;6270592;22;20042;-91
2023/01/12 14:32:25;;;;;;;7.57;1.52;;;;;;;;;;6206329;22;20024;-92
2023/01/12 14:34:53;;;;;;;6.85;1.63;;;;;;;;;;6291468;22;20016;-91
2023/01/12 14:37:25;;;;;;;7.97;1.58;;;;;;;;;;6265876;22;20466;-91
2023/01/12 14:39:59;;;;;;;6.53;2.25;;;;;;;;;;6231246;22;20507;-92
2023/01/12 14:48:28;;;;;;;9.10;1.95;;;;;;;;;;6292216;22;20019;-92
2023/01/12 14:51:04;;;;;;;8.73;1.90;;;;;;;;;;6242205;22;20352;-91
2023/01/12 14:53:39;;;;;;;7.60;2.05;;;;;;;;;;6265934;22;20008;-91
2023/01/12 14:56:57;;;;;;;8.32;1.80;;;;;;;;;;6256104;22;20065;-91
2023/01/12 14:59:41;;;;;;;6.43;1.92;;;;;;;;;;6292957;22;20016;-91
2023/01/12 15:02:12;;;;;;;7.70;2.05;;;;;;;;;;6231867;22;20034;-91
2023/01/12 15:04:55;;;;;;;9.80;2.33;;;;;;;;;;6296291;22;20446;-91
2023/01/12 15:07:51;;;;;;;8.88;2.13;;;;;;;;;;6269111;22;20015;-91
2023/01/12 15:10:19;;;;;;;11.63;2.25;;;;;;;;;;6231632;22;20054;-91
2023/01/12 15:13:17;;;;;;;13.02;2.30;;;;;;;;;;6287010;22;20030;-91
2023/01/12 15:27:41;;;;;;;13.25;2.35;;;;;;;;;;6175241;23;20017;-91
2023/01/12 15:30:10;;;;;;;12.77;2.38;;;;;;;;;;6171973;23;20031;-91
2023/01/12 15:32:43;;;;;;;11.77;2.22;;;;;;;;;;6197973;23;20021;-90
2023/01/12 15:35:20;;;;;;;6.88;2.20;;;;;;;;;;6193691;23;20021;-91
2023/01/12 15:37:47;;;;;;;14.88;2.38;;;;;;;;;;6167257;23;20540;-90
2023/01/12 15:40:16;;;;;;;12.32;2.55;;;;;;;;;;6131717;23;20076;-91
2023/01/12 15:42:46;;;;;;;9.63;2.15;;;;;;;;;;6165107;23;20122;-91
2023/01/12 15:45:27;;;;;;;10.18;2.10;;;;;;;;;;6140812;23;20100;-91
2023/01/12 15:47:55;;;;;;;10.40;2.17;;;;;;;;;;6131241;23;20157;-91
2023/01/12 15:50:23;;;;;;;14.07;2.40;;;;;;;;;;6155293;23;20032;-91
2023/01/12 15:52:51;;;;;;;10.57;2.33;;;;;;;;;;6141683;23;20397;-91
2023/01/12 15:55:21;;;;;;;9.98;2.10;;;;;;;;;;6190165;23;20048;-91
2023/01/12 15:57:51;;;;;;;11.98;2.38;;;;;;;;;;6183110;23;20029;-91
2023/01/12 16:00:25;;;;;;;14.45;2.15;;;;;;;;;;6191283;23;20021;-91
2023/01/12 16:02:53;;;;;;;15.85;2.40;;;;;;;;;;6222328;23;20024;-91
2023/01/12 16:05:25;;;;;;;6.93;2.05;;;;;;;;;;6229548;23;20023;-91
2023/01/12 16:07:53;;;;;;;8.50;2.30;;;;;;;;;;6227618;23;20020;-91
2023/01/12 16:10:21;;;;;;;14.70;2.70;;;;;;;;;;6260617;23;20016;-91
2023/01/12 16:13:15;;;;;;;11.40;2.60;;;;;;;;;;6255650;23;20396;-91
2023/01/12 16:15:43;;;;;;;15.32;3.40;;;;;;;;;;6226524;23;20024;-91
2023/01/12 16:18:11;;;;;;;7.82;3.17;;;;;;;;;;6192626;23;20016;-91
2023/01/12 16:20:39;;;;;;;8.45;4.20;;;;;;;;;;6204762;23;20767;-91
2023/01/12 16:23:07;;;;;;;9.77;3.83;;;;;;;;;;6228721;23;20115;-91
2023/01/12 16:25:40;;;;;;;11.40;4.05;;;;;;;;;;6218781;23;20056;-91
2023/01/12 16:28:08;;;;;;;12.30;4.55;;;;;;;;;;6228788;23;20322;-91
2023/01/12 16:30:43;;;;;;;12.80;4.55;;;;;;;;;;6254314;23;20083;-91
2023/01/12 16:33:14;;;;;;;11.90;5.72;;;;;;;;;;6227669;23;20015;-91
2023/01/12 16:35:41;;;;;;;11.68;4.38;;;;;;;;;;6228515;23;20019;-91
2023/01/12 16:38:58;;;;;;;9.82;3.90;;;;;;;;;;6233615;23;20024;-92
2023/01/12 16:41:25;;;;;;;10.75;3.70;;;;;;;;;;6194089;23;20456;-91
2023/01/12 16:43:57;;;;;;;8.10;3.83;;;;;;;;;;6229806;23;20083;-92
2023/01/12 16:46:31;;;;;;;8.10;3.90;;;;;;;;;;6228905;23;20020;-91
2023/01/12 16:49:01;;;;;;;7.32;3.22;;;;;;;;;;6228933;23;20090;-91
2023/01/12 16:51:29;;;;;;;6.85;3.47;;;;;;;;;;6228784;23;20016;-91
2023/01/12 16:54:03;;;;;;;8.43;3.35;;;;;;;;;;6203698;23;20087;-91
2023/01/12 16:56:55;;;;;;;9.45;3.30;;;;;;;;;;6199915;22;20467;-91
2023/01/12 17:02:24;;;;;;;7.50;2.58;;;;;;;;;;6285401;22;20456;-91
2023/01/12 17:04:53;;;;;;;11.48;3.00;;;;;;;;;;6223858;22;20016;-91
2023/01/12 17:07:21;;;;;;;8.80;3.20;;;;;;;;;;6197380;22;20046;-91